sensor_id;sensor_type;location;lat;lon;timestamp;P1;durP1;ratioP1;P2;durP2;ratioP2
61344;SDS011;47216;42.656;23.232;2023-05-10T00:00:10;5.13;;;3.60;;
61344;SDS011;47216;42.656;23.232;2023-05-10T00:02:38;4.63;;;3.70;;
61344;SDS011;47216;42.656;23.232;2023-05-10T00:05:05;3.77;;;3.40;;
61344;SDS011;47216;42.656;23.232;2023-05-10T00:07:33;4.60;;;3.73;;
61344;SDS011;47216;42.656;23.232;2023-05-10T00:09:59;4.40;;;3.63;;
61344;SDS011;47216;42.656;23.232;2023-05-10T00:12:26;4.23;;;3.70;;
61344;SDS011;47216;42.656;23.232;2023-05-10T00:14:54;4.50;;;3.40;;
61344;SDS011;47216;42.656;23.232;2023-05-10T00:17:21;3.53;;;3.23;;
61344;SDS011;47216;42.656;23.232;2023-05-10T00:19:48;4.07;;;3.60;;
61344;SDS011;47216;42.656;23.232;2023-05-10T00:22:15;4.20;;;3.60;;
61344;SDS011;47216;42.656;23.232;2023-05-10T00:24:42;4.20;;;3.43;;
61344;SDS011;47216;42.656;23.232;2023-05-10T00:27:08;4.53;;;3.60;;
61344;SDS011;47216;42.656;23.232;2023-05-10T00:29:35;3.83;;;3.50;;
61344;SDS011;47216;42.656;23.232;2023-05-10T00:32:04;4.10;;;3.50;;
61344;SDS011;47216;42.656;23.232;2023-05-10T00:34:31;4.77;;;3.33;;
61344;SDS011;47216;42.656;23.232;2023-05-10T00:36:58;5.00;;;3.40;;
61344;SDS011;47216;42.656;23.232;2023-05-10T00:39:24;4.67;;;3.60;;
61344;SDS011;47216;42.656;23.232;2023-05-10T00:41:51;4.17;;;3.67;;
61344;SDS011;47216;42.656;23.232;2023-05-10T00:44:18;5.83;;;3.70;;
61344;SDS011;47216;42.656;23.232;2023-05-10T00:46:45;4.07;;;3.67;;
61344;SDS011;47216;42.656;23.232;2023-05-10T00:49:14;4.20;;;3.40;;
61344;SDS011;47216;42.656;23.232;2023-05-10T00:51:41;4.53;;;3.90;;
61344;SDS011;47216;42.656;23.232;2023-05-10T00:54:09;5.97;;;3.57;;
61344;SDS011;47216;42.656;23.232;2023-05-10T00:56:37;3.90;;;3.50;;
61344;SDS011;47216;42.656;23.232;2023-05-10T00:59:05;3.90;;;3.37;;
61344;SDS011;47216;42.656;23.232;2023-05-10T01:01:32;3.63;;;3.33;;
61344;SDS011;47216;42.656;23.232;2023-05-10T01:03:59;3.80;;;3.40;;
61344;SDS011;47216;42.656;23.232;2023-05-10T01:06:28;4.00;;;3.60;;
61344;SDS011;47216;42.656;23.232;2023-05-10T01:08:55;4.83;;;4.07;;
61344;SDS011;47216;42.656;23.232;2023-05-10T01:11:22;3.70;;;3.30;;
61344;SDS011;47216;42.656;23.232;2023-05-10T01:13:50;3.53;;;3.23;;
61344;SDS011;47216;42.656;23.232;2023-05-10T01:16:20;5.53;;;4.30;;
61344;SDS011;47216;42.656;23.232;2023-05-10T01:18:47;4.60;;;3.67;;
61344;SDS011;47216;42.656;23.232;2023-05-10T01:21:17;5.67;;;4.00;;
61344;SDS011;47216;42.656;23.232;2023-05-10T01:27:02;4.63;;;3.83;;
61344;SDS011;47216;42.656;23.232;2023-05-10T01:32:45;4.13;;;3.70;;
61344;SDS011;47216;42.656;23.232;2023-05-10T01:35:21;3.70;;;3.30;;
61344;SDS011;47216;42.656;23.232;2023-05-10T01:37:57;4.10;;;3.70;;
61344;SDS011;47216;42.656;23.232;2023-05-10T01:40:32;4.10;;;3.70;;
61344;SDS011;47216;42.656;23.232;2023-05-10T01:43:04;3.60;;;3.30;;
61344;SDS011;47216;42.656;23.232;2023-05-10T01:45:39;4.50;;;3.77;;
61344;SDS011;47216;42.656;23.232;2023-05-10T01:48:12;6.80;;;3.50;;
61344;SDS011;47216;42.656;23.232;2023-05-10T01:50:41;4.67;;;3.53;;
61344;SDS011;47216;42.656;23.232;2023-05-10T01:53:10;3.80;;;3.40;;
61344;SDS011;47216;42.656;23.232;2023-05-10T01:55:41;4.00;;;3.20;;
61344;SDS011;47216;42.656;23.232;2023-05-10T01:58:13;4.30;;;3.57;;
61344;SDS011;47216;42.656;23.232;2023-05-10T02:00:44;3.10;;;2.80;;
61344;SDS011;47216;42.656;23.232;2023-05-10T02:03:13;3.20;;;2.90;;
61344;SDS011;47216;42.656;23.232;2023-05-10T02:05:42;3.10;;;2.80;;
61344;SDS011;47216;42.656;23.232;2023-05-10T02:08:12;3.20;;;2.90;;
61344;SDS011;47216;42.656;23.232;2023-05-10T02:10:40;3.63;;;2.80;;
61344;SDS011;47216;42.656;23.232;2023-05-10T02:13:09;2.50;;;2.30;;
61344;SDS011;47216;42.656;23.232;2023-05-10T02:15:37;4.53;;;2.90;;
61344;SDS011;47216;42.656;23.232;2023-05-10T02:18:06;3.53;;;2.70;;
61344;SDS011;47216;42.656;23.232;2023-05-10T02:20:37;3.10;;;2.80;;
61344;SDS011;47216;42.656;23.232;2023-05-10T02:23:04;3.20;;;2.87;;
61344;SDS011;47216;42.656;23.232;2023-05-10T02:25:33;3.17;;;2.70;;
61344;SDS011;47216;42.656;23.232;2023-05-10T02:28:02;3.20;;;2.53;;
61344;SDS011;47216;42.656;23.232;2023-05-10T02:30:31;3.23;;;2.53;;
61344;SDS011;47216;42.656;23.232;2023-05-10T02:32:59;2.57;;;2.37;;
61344;SDS011;47216;42.656;23.232;2023-05-10T02:35:28;2.80;;;2.27;;
61344;SDS011;47216;42.656;23.232;2023-05-10T02:37:57;2.83;;;2.60;;
61344;SDS011;47216;42.656;23.232;2023-05-10T02:40:25;3.20;;;2.60;;
61344;SDS011;47216;42.656;23.232;2023-05-10T02:42:54;2.83;;;2.60;;
61344;SDS011;47216;42.656;23.232;2023-05-10T02:45:23;4.83;;;3.00;;
61344;SDS011;47216;42.656;23.232;2023-05-10T02:47:53;3.03;;;2.53;;
61344;SDS011;47216;42.656;23.232;2023-05-10T02:50:20;2.60;;;2.30;;
61344;SDS011;47216;42.656;23.232;2023-05-10T02:52:50;4.07;;;2.33;;
61344;SDS011;47216;42.656;23.232;2023-05-10T02:55:21;3.17;;;2.80;;
61344;SDS011;47216;42.656;23.232;2023-05-10T02:57:54;5.67;;;2.53;;
61344;SDS011;47216;42.656;23.232;2023-05-10T03:00:24;2.30;;;2.10;;
61344;SDS011;47216;42.656;23.232;2023-05-10T03:02:51;2.60;;;2.40;;
61344;SDS011;47216;42.656;23.232;2023-05-10T03:05:18;2.70;;;2.20;;
61344;SDS011;47216;42.656;23.232;2023-05-10T03:07:46;4.30;;;2.40;;
61344;SDS011;47216;42.656;23.232;2023-05-10T03:10:13;2.80;;;2.37;;
61344;SDS011;47216;42.656;23.232;2023-05-10T03:12:45;2.60;;;2.07;;
61344;SDS011;47216;42.656;23.232;2023-05-10T03:15:25;4.90;;;2.47;;
61344;SDS011;47216;42.656;23.232;2023-05-10T03:18:01;3.13;;;2.37;;
61344;SDS011;47216;42.656;23.232;2023-05-10T03:20:35;2.90;;;2.60;;
61344;SDS011;47216;42.656;23.232;2023-05-10T03:23:11;3.93;;;2.77;;
61344;SDS011;47216;42.656;23.232;2023-05-10T03:25:39;5.00;;;2.90;;
61344;SDS011;47216;42.656;23.232;2023-05-10T03:28:11;4.63;;;2.53;;
61344;SDS011;47216;42.656;23.232;2023-05-10T03:30:38;7.37;;;2.50;;
61344;SDS011;47216;42.656;23.232;2023-05-10T03:33:07;3.13;;;2.53;;
61344;SDS011;47216;42.656;23.232;2023-05-10T03:35:34;3.53;;;2.70;;
61344;SDS011;47216;42.656;23.232;2023-05-10T03:38:01;3.33;;;2.60;;
61344;SDS011;47216;42.656;23.232;2023-05-10T03:40:28;3.07;;;2.77;;
61344;SDS011;47216;42.656;23.232;2023-05-10T03:42:56;4.90;;;2.30;;
61344;SDS011;47216;42.656;23.232;2023-05-10T03:45:25;3.20;;;2.90;;
61344;SDS011;47216;42.656;23.232;2023-05-10T03:47:52;3.30;;;3.00;;
61344;SDS011;47216;42.656;23.232;2023-05-10T03:50:19;3.43;;;2.93;;
61344;SDS011;47216;42.656;23.232;2023-05-10T03:52:45;5.97;;;3.30;;
61344;SDS011;47216;42.656;23.232;2023-05-10T03:55:12;6.53;;;3.50;;
61344;SDS011;47216;42.656;23.232;2023-05-10T03:57:39;3.30;;;3.00;;
61344;SDS011;47216;42.656;23.232;2023-05-10T04:00:06;3.43;;;3.00;;
61344;SDS011;47216;42.656;23.232;2023-05-10T04:02:36;3.97;;;3.00;;
61344;SDS011;47216;42.656;23.232;2023-05-10T04:05:03;4.27;;;3.00;;
61344;SDS011;47216;42.656;23.232;2023-05-10T04:07:30;3.20;;;2.70;;
61344;SDS011;47216;42.656;23.232;2023-05-10T04:09:56;4.43;;;3.07;;
61344;SDS011;47216;42.656;23.232;2023-05-10T04:12:23;5.33;;;3.00;;
61344;SDS011;47216;42.656;23.232;2023-05-10T04:14:50;3.70;;;3.00;;
61344;SDS011;47216;42.656;23.232;2023-05-10T04:17:17;4.27;;;2.90;;
61344;SDS011;47216;42.656;23.232;2023-05-10T04:19:45;4.13;;;3.20;;
61344;SDS011;47216;42.656;23.232;2023-05-10T04:22:12;3.77;;;3.00;;
61344;SDS011;47216;42.656;23.232;2023-05-10T04:24:39;3.90;;;3.20;;
61344;SDS011;47216;42.656;23.232;2023-05-10T04:27:05;8.27;;;3.37;;
61344;SDS011;47216;42.656;23.232;2023-05-10T04:29:32;4.80;;;3.23;;
61344;SDS011;47216;42.656;23.232;2023-05-10T04:31:59;4.30;;;3.20;;
61344;SDS011;47216;42.656;23.232;2023-05-10T04:34:26;3.53;;;2.90;;
61344;SDS011;47216;42.656;23.232;2023-05-10T04:36:55;4.20;;;3.50;;
61344;SDS011;47216;42.656;23.232;2023-05-10T04:39:21;3.67;;;3.10;;
61344;SDS011;47216;42.656;23.232;2023-05-10T04:41:48;6.00;;;3.90;;
61344;SDS011;47216;42.656;23.232;2023-05-10T04:44:15;6.37;;;3.70;;
61344;SDS011;47216;42.656;23.232;2023-05-10T04:46:42;5.50;;;3.63;;
61344;SDS011;47216;42.656;23.232;2023-05-10T04:49:09;4.57;;;3.63;;
61344;SDS011;47216;42.656;23.232;2023-05-10T04:51:36;3.73;;;3.20;;
61344;SDS011;47216;42.656;23.232;2023-05-10T04:54:04;5.47;;;3.67;;
61344;SDS011;47216;42.656;23.232;2023-05-10T04:56:31;4.33;;;3.40;;
61344;SDS011;47216;42.656;23.232;2023-05-10T04:58:58;6.70;;;3.90;;
61344;SDS011;47216;42.656;23.232;2023-05-10T05:01:25;4.90;;;3.03;;
61344;SDS011;47216;42.656;23.232;2023-05-10T05:03:51;3.83;;;3.33;;
61344;SDS011;47216;42.656;23.232;2023-05-10T05:06:18;5.00;;;3.80;;
61344;SDS011;47216;42.656;23.232;2023-05-10T05:08:46;5.87;;;5.10;;
61344;SDS011;47216;42.656;23.232;2023-05-10T05:11:15;4.43;;;3.70;;
61344;SDS011;47216;42.656;23.232;2023-05-10T05:13:43;4.43;;;3.83;;
61344;SDS011;47216;42.656;23.232;2023-05-10T05:16:09;4.40;;;3.33;;
61344;SDS011;47216;42.656;23.232;2023-05-10T05:18:37;5.90;;;3.40;;
61344;SDS011;47216;42.656;23.232;2023-05-10T05:21:12;4.87;;;3.50;;
61344;SDS011;47216;42.656;23.232;2023-05-10T05:23:40;4.07;;;3.13;;
61344;SDS011;47216;42.656;23.232;2023-05-10T05:26:06;4.60;;;3.47;;
61344;SDS011;47216;42.656;23.232;2023-05-10T05:28:35;5.70;;;3.23;;
61344;SDS011;47216;42.656;23.232;2023-05-10T05:31:02;4.53;;;3.73;;
61344;SDS011;47216;42.656;23.232;2023-05-10T05:33:29;4.37;;;3.73;;
61344;SDS011;47216;42.656;23.232;2023-05-10T05:35:55;5.93;;;4.20;;
61344;SDS011;47216;42.656;23.232;2023-05-10T05:38:22;5.63;;;4.60;;
61344;SDS011;47216;42.656;23.232;2023-05-10T05:40:49;5.33;;;4.43;;
61344;SDS011;47216;42.656;23.232;2023-05-10T05:43:16;5.30;;;3.97;;
61344;SDS011;47216;42.656;23.232;2023-05-10T05:45:44;5.47;;;4.40;;
61344;SDS011;47216;42.656;23.232;2023-05-10T05:48:11;5.03;;;3.93;;
61344;SDS011;47216;42.656;23.232;2023-05-10T05:50:38;6.00;;;4.33;;
61344;SDS011;47216;42.656;23.232;2023-05-10T05:53:04;6.27;;;4.23;;
61344;SDS011;47216;42.656;23.232;2023-05-10T05:55:31;9.03;;;4.87;;
61344;SDS011;47216;42.656;23.232;2023-05-10T05:57:58;7.97;;;5.00;;
61344;SDS011;47216;42.656;23.232;2023-05-10T06:00:26;7.93;;;5.37;;
61344;SDS011;47216;42.656;23.232;2023-05-10T06:02:54;6.87;;;5.03;;
61344;SDS011;47216;42.656;23.232;2023-05-10T06:05:20;9.07;;;5.50;;
61344;SDS011;47216;42.656;23.232;2023-05-10T06:07:47;12.37;;;5.27;;
61344;SDS011;47216;42.656;23.232;2023-05-10T06:10:14;6.13;;;4.87;;
61344;SDS011;47216;42.656;23.232;2023-05-10T06:12:41;9.43;;;6.20;;
61344;SDS011;47216;42.656;23.232;2023-05-10T06:15:08;7.73;;;5.80;;
61344;SDS011;47216;42.656;23.232;2023-05-10T06:17:36;9.90;;;5.77;;
61344;SDS011;47216;42.656;23.232;2023-05-10T06:20:06;10.63;;;5.93;;
61344;SDS011;47216;42.656;23.232;2023-05-10T06:22:33;8.10;;;5.90;;
61344;SDS011;47216;42.656;23.232;2023-05-10T06:25:00;9.47;;;6.07;;
61344;SDS011;47216;42.656;23.232;2023-05-10T06:27:27;8.77;;;6.50;;
61344;SDS011;47216;42.656;23.232;2023-05-10T06:29:54;8.33;;;5.50;;
61344;SDS011;47216;42.656;23.232;2023-05-10T06:32:21;7.77;;;5.37;;
61344;SDS011;47216;42.656;23.232;2023-05-10T06:34:48;9.43;;;6.13;;
61344;SDS011;47216;42.656;23.232;2023-05-10T06:37:16;9.10;;;5.53;;
61344;SDS011;47216;42.656;23.232;2023-05-10T06:39:43;9.13;;;6.33;;
61344;SDS011;47216;42.656;23.232;2023-05-10T06:42:10;9.47;;;6.20;;
61344;SDS011;47216;42.656;23.232;2023-05-10T06:44:37;8.47;;;5.47;;
61344;SDS011;47216;42.656;23.232;2023-05-10T06:47:03;7.77;;;5.80;;
61344;SDS011;47216;42.656;23.232;2023-05-10T06:49:30;10.73;;;5.37;;
61344;SDS011;47216;42.656;23.232;2023-05-10T06:51:57;9.10;;;6.00;;
61344;SDS011;47216;42.656;23.232;2023-05-10T06:54:26;8.33;;;5.10;;
61344;SDS011;47216;42.656;23.232;2023-05-10T06:56:53;7.30;;;5.60;;
61344;SDS011;47216;42.656;23.232;2023-05-10T06:59:19;9.83;;;5.40;;
61344;SDS011;47216;42.656;23.232;2023-05-10T07:01:46;5.87;;;4.90;;
61344;SDS011;47216;42.656;23.232;2023-05-10T07:04:13;6.90;;;5.27;;
61344;SDS011;47216;42.656;23.232;2023-05-10T07:06:40;8.60;;;6.07;;
61344;SDS011;47216;42.656;23.232;2023-05-10T07:09:07;6.20;;;5.07;;
61344;SDS011;47216;42.656;23.232;2023-05-10T07:11:35;8.97;;;6.50;;
61344;SDS011;47216;42.656;23.232;2023-05-10T07:14:02;9.70;;;6.07;;
61344;SDS011;47216;42.656;23.232;2023-05-10T07:16:29;8.47;;;5.93;;
61344;SDS011;47216;42.656;23.232;2023-05-10T07:18:56;7.83;;;5.87;;
61344;SDS011;47216;42.656;23.232;2023-05-10T07:21:23;9.93;;;5.73;;
61344;SDS011;47216;42.656;23.232;2023-05-10T07:23:50;8.07;;;6.03;;
61344;SDS011;47216;42.656;23.232;2023-05-10T07:26:17;7.33;;;5.30;;
61344;SDS011;47216;42.656;23.232;2023-05-10T07:28:45;7.20;;;5.47;;
61344;SDS011;47216;42.656;23.232;2023-05-10T07:31:12;9.63;;;5.57;;
61344;SDS011;47216;42.656;23.232;2023-05-10T07:33:39;7.77;;;5.73;;
61344;SDS011;47216;42.656;23.232;2023-05-10T07:36:06;9.27;;;6.00;;
61344;SDS011;47216;42.656;23.232;2023-05-10T07:38:33;7.33;;;5.57;;
61344;SDS011;47216;42.656;23.232;2023-05-10T07:41:00;8.20;;;6.10;;
61344;SDS011;47216;42.656;23.232;2023-05-10T07:43:27;7.97;;;5.90;;
61344;SDS011;47216;42.656;23.232;2023-05-10T07:45:55;8.30;;;6.13;;
61344;SDS011;47216;42.656;23.232;2023-05-10T07:48:22;6.70;;;5.27;;
61344;SDS011;47216;42.656;23.232;2023-05-10T07:50:49;7.60;;;5.83;;
61344;SDS011;47216;42.656;23.232;2023-05-10T07:53:16;6.83;;;5.70;;
61344;SDS011;47216;42.656;23.232;2023-05-10T07:55:44;8.37;;;5.17;;
61344;SDS011;47216;42.656;23.232;2023-05-10T07:58:16;7.80;;;5.63;;
61344;SDS011;47216;42.656;23.232;2023-05-10T08:00:43;9.80;;;5.30;;
61344;SDS011;47216;42.656;23.232;2023-05-10T08:03:11;8.47;;;6.50;;
61344;SDS011;47216;42.656;23.232;2023-05-10T08:05:39;8.43;;;6.03;;
61344;SDS011;47216;42.656;23.232;2023-05-10T08:08:09;10.67;;;6.77;;
61344;SDS011;47216;42.656;23.232;2023-05-10T08:10:36;8.20;;;5.93;;
61344;SDS011;47216;42.656;23.232;2023-05-10T08:13:06;10.97;;;5.93;;
61344;SDS011;47216;42.656;23.232;2023-05-10T08:15:33;10.97;;;6.50;;
61344;SDS011;47216;42.656;23.232;2023-05-10T08:18:00;8.73;;;6.00;;
61344;SDS011;47216;42.656;23.232;2023-05-10T08:20:28;13.53;;;6.30;;
61344;SDS011;47216;42.656;23.232;2023-05-10T08:22:55;10.07;;;6.17;;
61344;SDS011;47216;42.656;23.232;2023-05-10T08:25:22;7.73;;;5.93;;
61344;SDS011;47216;42.656;23.232;2023-05-10T08:27:49;9.67;;;6.40;;
61344;SDS011;47216;42.656;23.232;2023-05-10T08:30:19;6.93;;;5.83;;
61344;SDS011;47216;42.656;23.232;2023-05-10T08:32:46;9.30;;;5.77;;
61344;SDS011;47216;42.656;23.232;2023-05-10T08:35:12;10.27;;;6.50;;
61344;SDS011;47216;42.656;23.232;2023-05-10T08:37:42;7.63;;;5.90;;
61344;SDS011;47216;42.656;23.232;2023-05-10T08:40:09;7.40;;;5.93;;
61344;SDS011;47216;42.656;23.232;2023-05-10T08:42:39;7.47;;;5.90;;
61344;SDS011;47216;42.656;23.232;2023-05-10T08:45:09;7.53;;;6.13;;
61344;SDS011;47216;42.656;23.232;2023-05-10T08:47:37;6.67;;;5.37;;
61344;SDS011;47216;42.656;23.232;2023-05-10T08:50:05;8.53;;;6.00;;
61344;SDS011;47216;42.656;23.232;2023-05-10T08:52:33;8.37;;;6.20;;
61344;SDS011;47216;42.656;23.232;2023-05-10T08:55:06;11.20;;;5.87;;
61344;SDS011;47216;42.656;23.232;2023-05-10T08:57:33;6.93;;;5.67;;
61344;SDS011;47216;42.656;23.232;2023-05-10T09:00:03;8.60;;;6.17;;
61344;SDS011;47216;42.656;23.232;2023-05-10T09:02:30;9.40;;;6.13;;
61344;SDS011;47216;42.656;23.232;2023-05-10T09:04:57;6.33;;;5.40;;
61344;SDS011;47216;42.656;23.232;2023-05-10T09:07:24;11.73;;;6.43;;
61344;SDS011;47216;42.656;23.232;2023-05-10T09:09:52;8.17;;;6.33;;
61344;SDS011;47216;42.656;23.232;2023-05-10T09:12:21;8.20;;;6.27;;
61344;SDS011;47216;42.656;23.232;2023-05-10T09:14:48;7.20;;;6.00;;
61344;SDS011;47216;42.656;23.232;2023-05-10T09:17:18;7.30;;;6.43;;
61344;SDS011;47216;42.656;23.232;2023-05-10T09:19:45;9.23;;;5.87;;
61344;SDS011;47216;42.656;23.232;2023-05-10T09:22:12;10.17;;;5.93;;
61344;SDS011;47216;42.656;23.232;2023-05-10T09:24:39;20.40;;;6.90;;
61344;SDS011;47216;42.656;23.232;2023-05-10T09:27:10;9.67;;;6.37;;
61344;SDS011;47216;42.656;23.232;2023-05-10T09:29:41;9.33;;;6.13;;
61344;SDS011;47216;42.656;23.232;2023-05-10T09:32:08;10.33;;;6.23;;
61344;SDS011;47216;42.656;23.232;2023-05-10T09:34:35;6.23;;;5.63;;
61344;SDS011;47216;42.656;23.232;2023-05-10T09:37:05;7.90;;;6.10;;
61344;SDS011;47216;42.656;23.232;2023-05-10T09:39:33;8.67;;;5.80;;
61344;SDS011;47216;42.656;23.232;2023-05-10T09:42:02;8.33;;;6.43;;
61344;SDS011;47216;42.656;23.232;2023-05-10T09:44:30;7.30;;;5.73;;
61344;SDS011;47216;42.656;23.232;2023-05-10T09:46:59;6.43;;;5.10;;
61344;SDS011;47216;42.656;23.232;2023-05-10T09:49:26;6.80;;;5.17;;
61344;SDS011;47216;42.656;23.232;2023-05-10T09:52:00;9.97;;;6.33;;
61344;SDS011;47216;42.656;23.232;2023-05-10T09:54:28;8.70;;;6.27;;
61344;SDS011;47216;42.656;23.232;2023-05-10T09:56:55;10.43;;;6.40;;
61344;SDS011;47216;42.656;23.232;2023-05-10T09:59:24;7.23;;;5.97;;
61344;SDS011;47216;42.656;23.232;2023-05-10T10:01:52;9.73;;;6.40;;
61344;SDS011;47216;42.656;23.232;2023-05-10T10:04:21;9.37;;;6.43;;
61344;SDS011;47216;42.656;23.232;2023-05-10T10:06:57;12.70;;;5.70;;
61344;SDS011;47216;42.656;23.232;2023-05-10T10:09:26;8.27;;;6.03;;
61344;SDS011;47216;42.656;23.232;2023-05-10T10:11:53;7.60;;;6.00;;
61344;SDS011;47216;42.656;23.232;2023-05-10T10:14:21;5.80;;;5.10;;
61344;SDS011;47216;42.656;23.232;2023-05-10T10:16:48;11.90;;;6.47;;
61344;SDS011;47216;42.656;23.232;2023-05-10T10:19:16;8.40;;;6.67;;
61344;SDS011;47216;42.656;23.232;2023-05-10T10:21:48;6.90;;;5.93;;
61344;SDS011;47216;42.656;23.232;2023-05-10T10:24:16;9.13;;;5.80;;
61344;SDS011;47216;42.656;23.232;2023-05-10T10:26:43;8.27;;;6.23;;
61344;SDS011;47216;42.656;23.232;2023-05-10T10:29:16;7.30;;;5.80;;
61344;SDS011;47216;42.656;23.232;2023-05-10T10:31:51;7.53;;;6.70;;
61344;SDS011;47216;42.656;23.232;2023-05-10T10:34:25;8.00;;;6.13;;
61344;SDS011;47216;42.656;23.232;2023-05-10T10:36:55;6.53;;;5.50;;
61344;SDS011;47216;42.656;23.232;2023-05-10T10:39:23;8.37;;;6.23;;
61344;SDS011;47216;42.656;23.232;2023-05-10T10:41:51;12.07;;;6.57;;
61344;SDS011;47216;42.656;23.232;2023-05-10T10:44:22;7.87;;;6.20;;
61344;SDS011;47216;42.656;23.232;2023-05-10T10:47:00;7.27;;;5.47;;
61344;SDS011;47216;42.656;23.232;2023-05-10T10:49:30;6.17;;;5.57;;
61344;SDS011;47216;42.656;23.232;2023-05-10T10:52:15;11.57;;;6.00;;
61344;SDS011;47216;42.656;23.232;2023-05-10T10:54:49;10.73;;;6.37;;
61344;SDS011;47216;42.656;23.232;2023-05-10T10:57:18;6.67;;;5.53;;
61344;SDS011;47216;42.656;23.232;2023-05-10T10:59:46;7.03;;;5.73;;
61344;SDS011;47216;42.656;23.232;2023-05-10T11:02:32;9.43;;;6.87;;
61344;SDS011;47216;42.656;23.232;2023-05-10T11:05:04;6.07;;;5.33;;
61344;SDS011;47216;42.656;23.232;2023-05-10T11:07:54;12.90;;;5.73;;
61344;SDS011;47216;42.656;23.232;2023-05-10T11:10:22;15.87;;;7.13;;
61344;SDS011;47216;42.656;23.232;2023-05-10T11:12:51;10.10;;;6.00;;
61344;SDS011;47216;42.656;23.232;2023-05-10T11:15:19;14.60;;;7.17;;
61344;SDS011;47216;42.656;23.232;2023-05-10T11:17:47;15.17;;;7.30;;
61344;SDS011;47216;42.656;23.232;2023-05-10T11:20:17;6.97;;;5.73;;
61344;SDS011;47216;42.656;23.232;2023-05-10T11:22:50;10.10;;;6.17;;
61344;SDS011;47216;42.656;23.232;2023-05-10T11:25:19;9.73;;;5.63;;
61344;SDS011;47216;42.656;23.232;2023-05-10T11:27:47;8.77;;;6.03;;
61344;SDS011;47216;42.656;23.232;2023-05-10T11:30:14;11.90;;;6.53;;
61344;SDS011;47216;42.656;23.232;2023-05-10T11:32:41;9.33;;;5.13;;
61344;SDS011;47216;42.656;23.232;2023-05-10T11:35:09;9.60;;;5.50;;
61344;SDS011;47216;42.656;23.232;2023-05-10T11:37:38;7.40;;;5.57;;
61344;SDS011;47216;42.656;23.232;2023-05-10T11:40:08;6.13;;;5.20;;
61344;SDS011;47216;42.656;23.232;2023-05-10T11:42:37;8.10;;;5.33;;
61344;SDS011;47216;42.656;23.232;2023-05-10T11:45:04;7.93;;;5.50;;
61344;SDS011;47216;42.656;23.232;2023-05-10T11:47:32;6.93;;;6.20;;
61344;SDS011;47216;42.656;23.232;2023-05-10T11:50:00;5.83;;;4.80;;
61344;SDS011;47216;42.656;23.232;2023-05-10T11:52:28;8.87;;;5.67;;
61344;SDS011;47216;42.656;23.232;2023-05-10T11:54:55;5.83;;;5.23;;
61344;SDS011;47216;42.656;23.232;2023-05-10T11:57:26;6.13;;;5.30;;
61344;SDS011;47216;42.656;23.232;2023-05-10T11:59:55;6.90;;;5.17;;
61344;SDS011;47216;42.656;23.232;2023-05-10T12:02:23;6.37;;;5.40;;
61344;SDS011;47216;42.656;23.232;2023-05-10T12:04:50;6.13;;;5.00;;
61344;SDS011;47216;42.656;23.232;2023-05-10T12:07:17;6.50;;;5.03;;
61344;SDS011;47216;42.656;23.232;2023-05-10T12:09:44;7.17;;;5.20;;
61344;SDS011;47216;42.656;23.232;2023-05-10T12:12:15;6.93;;;5.57;;
61344;SDS011;47216;42.656;23.232;2023-05-10T12:14:42;7.73;;;5.20;;
61344;SDS011;47216;42.656;23.232;2023-05-10T12:17:12;5.90;;;5.03;;
61344;SDS011;47216;42.656;23.232;2023-05-10T12:19:39;8.57;;;5.40;;
61344;SDS011;47216;42.656;23.232;2023-05-10T12:22:07;6.97;;;5.60;;
61344;SDS011;47216;42.656;23.232;2023-05-10T12:24:34;8.00;;;6.10;;
61344;SDS011;47216;42.656;23.232;2023-05-10T12:27:04;8.43;;;5.60;;
61344;SDS011;47216;42.656;23.232;2023-05-10T12:29:33;9.10;;;5.90;;
61344;SDS011;47216;42.656;23.232;2023-05-10T12:31:59;5.90;;;5.23;;
61344;SDS011;47216;42.656;23.232;2023-05-10T12:34:29;9.97;;;6.20;;
61344;SDS011;47216;42.656;23.232;2023-05-10T12:36:58;7.63;;;5.70;;
61344;SDS011;47216;42.656;23.232;2023-05-10T12:39:25;6.57;;;5.87;;
61344;SDS011;47216;42.656;23.232;2023-05-10T12:41:52;11.60;;;6.87;;
61344;SDS011;47216;42.656;23.232;2023-05-10T12:44:19;7.33;;;6.10;;
61344;SDS011;47216;42.656;23.232;2023-05-10T12:46:46;8.93;;;5.73;;
61344;SDS011;47216;42.656;23.232;2023-05-10T12:49:12;7.33;;;5.80;;
61344;SDS011;47216;42.656;23.232;2023-05-10T12:51:41;11.70;;;5.63;;
61344;SDS011;47216;42.656;23.232;2023-05-10T12:54:07;9.17;;;6.10;;
61344;SDS011;47216;42.656;23.232;2023-05-10T12:56:34;8.70;;;5.77;;
61344;SDS011;47216;42.656;23.232;2023-05-10T12:59:02;9.87;;;6.67;;
61344;SDS011;47216;42.656;23.232;2023-05-10T13:01:28;7.13;;;6.07;;
61344;SDS011;47216;42.656;23.232;2023-05-10T13:03:55;10.83;;;6.07;;
61344;SDS011;47216;42.656;23.232;2023-05-10T13:06:22;11.33;;;6.23;;
61344;SDS011;47216;42.656;23.232;2023-05-10T13:08:50;9.30;;;5.63;;
61344;SDS011;47216;42.656;23.232;2023-05-10T13:11:17;7.10;;;5.87;;
61344;SDS011;47216;42.656;23.232;2023-05-10T13:13:45;6.87;;;5.30;;
61344;SDS011;47216;42.656;23.232;2023-05-10T13:16:11;6.67;;;5.57;;
61344;SDS011;47216;42.656;23.232;2023-05-10T13:18:38;8.47;;;5.83;;
61344;SDS011;47216;42.656;23.232;2023-05-10T13:21:05;7.30;;;5.83;;
61344;SDS011;47216;42.656;23.232;2023-05-10T13:23:33;7.40;;;5.87;;
61344;SDS011;47216;42.656;23.232;2023-05-10T13:26:01;7.53;;;5.63;;
61344;SDS011;47216;42.656;23.232;2023-05-10T13:28:28;7.30;;;5.23;;
61344;SDS011;47216;42.656;23.232;2023-05-10T13:30:55;8.47;;;6.07;;
61344;SDS011;47216;42.656;23.232;2023-05-10T13:33:22;6.70;;;5.50;;
61344;SDS011;47216;42.656;23.232;2023-05-10T13:35:49;7.07;;;5.53;;
61344;SDS011;47216;42.656;23.232;2023-05-10T13:38:16;6.13;;;5.33;;
61344;SDS011;47216;42.656;23.232;2023-05-10T13:40:43;9.03;;;5.53;;
61344;SDS011;47216;42.656;23.232;2023-05-10T13:43:11;9.17;;;5.63;;
61344;SDS011;47216;42.656;23.232;2023-05-10T13:45:37;6.20;;;5.17;;
61344;SDS011;47216;42.656;23.232;2023-05-10T13:48:04;7.03;;;5.60;;
61344;SDS011;47216;42.656;23.232;2023-05-10T13:50:31;6.23;;;5.27;;
61344;SDS011;47216;42.656;23.232;2023-05-10T13:52:58;8.63;;;5.93;;
61344;SDS011;47216;42.656;23.232;2023-05-10T13:58:48;8.43;;;5.97;;
61344;SDS011;47216;42.656;23.232;2023-05-10T14:01:15;10.03;;;5.87;;
61344;SDS011;47216;42.656;23.232;2023-05-10T14:03:42;7.67;;;5.53;;
61344;SDS011;47216;42.656;23.232;2023-05-10T14:06:09;7.97;;;5.70;;
61344;SDS011;47216;42.656;23.232;2023-05-10T14:08:36;7.43;;;5.67;;
61344;SDS011;47216;42.656;23.232;2023-05-10T14:11:03;9.03;;;5.97;;
61344;SDS011;47216;42.656;23.232;2023-05-10T14:13:30;7.10;;;5.50;;
61344;SDS011;47216;42.656;23.232;2023-05-10T14:15:58;10.67;;;5.50;;
61344;SDS011;47216;42.656;23.232;2023-05-10T14:18:25;10.10;;;5.80;;
61344;SDS011;47216;42.656;23.232;2023-05-10T14:20:53;6.93;;;5.43;;
61344;SDS011;47216;42.656;23.232;2023-05-10T14:23:21;10.23;;;5.37;;
61344;SDS011;47216;42.656;23.232;2023-05-10T14:25:49;10.10;;;6.07;;
61344;SDS011;47216;42.656;23.232;2023-05-10T14:28:16;10.37;;;5.57;;
61344;SDS011;47216;42.656;23.232;2023-05-10T14:30:44;9.10;;;5.53;;
61344;SDS011;47216;42.656;23.232;2023-05-10T14:33:12;8.13;;;5.40;;
61344;SDS011;47216;42.656;23.232;2023-05-10T14:35:39;10.20;;;5.87;;
61344;SDS011;47216;42.656;23.232;2023-05-10T14:38:06;7.93;;;5.73;;
61344;SDS011;47216;42.656;23.232;2023-05-10T14:40:33;7.17;;;6.20;;
61344;SDS011;47216;42.656;23.232;2023-05-10T14:43:00;7.37;;;5.47;;
61344;SDS011;47216;42.656;23.232;2023-05-10T14:45:27;9.07;;;5.90;;
61344;SDS011;47216;42.656;23.232;2023-05-10T14:47:54;8.10;;;5.87;;